Time;durP1;ratioP1;P1;durP2;ratioP2;P2;SDS_P1;SDS_P2;PMS_P1;PMS_P2;Temp;Humidity;BMP_temperature;BMP_pressure;BME280_temperature;BME280_humidity;BME280_pressure;Samples;Min_cycle;Max_cycle;Signal;HPM_P1;HPM_P2
2022/07/08 00:01:07;;;;;;;1999.90;999.90;;;14.80;99.90;;;;;;5050666;28;20463;-68
2022/07/08 00:03:34;;;;;;;1999.90;999.90;;;14.80;99.90;;;;;;5050766;28;20462;-67
2022/07/08 00:06:01;;;;;;;1999.90;999.90;;;14.80;99.90;;;;;;5048846;28;20454;-67
2022/07/08 00:08:30;;;;;;;1999.90;999.90;;;14.80;99.90;;;;;;5046443;28;20551;-67
2022/07/08 00:10:57;;;;;;;1999.90;999.90;;;14.80;99.90;;;;;;5047844;28;20541;-67
2022/07/08 00:13:24;;;;;;;1999.90;999.90;;;14.80;99.90;;;;;;5049503;28;20454;-67
2022/07/08 00:15:50;;;;;;;1999.90;999.90;;;14.80;99.90;;;;;;5050761;28;20518;-67
2022/07/08 00:18:17;;;;;;;1999.90;999.90;;;14.70;99.90;;;;;;5046869;28;20474;-67
2022/07/08 00:20:45;;;;;;;1999.90;999.90;;;14.80;99.90;;;;;;5048583;28;20462;-67
2022/07/08 00:23:11;;;;;;;1999.90;999.90;;;14.70;99.90;;;;;;5047475;28;20531;-67
2022/07/08 00:25:38;;;;;;;1999.90;999.90;;;14.60;99.90;;;;;;5049160;28;20572;-68
2022/07/08 00:28:05;;;;;;;1999.90;999.90;;;14.50;99.90;;;;;;5046287;28;20539;-67
2022/07/08 00:30:32;;;;;;;1999.90;999.90;;;14.50;99.90;;;;;;5049318;28;21819;-68
2022/07/08 00:32:59;;;;;;;1999.90;999.90;;;14.50;99.90;;;;;;5048529;28;20841;-67
2022/07/08 00:35:26;;;;;;;1999.90;999.90;;;14.50;99.90;;;;;;5049400;28;20474;-67
2022/07/08 00:37:54;;;;;;;1999.90;999.90;;;14.50;99.90;;;;;;5047774;28;20486;-67
2022/07/08 00:40:21;;;;;;;1999.90;999.90;;;14.50;99.90;;;;;;5049432;28;20926;-66
2022/07/08 00:42:48;;;;;;;1999.90;999.90;;;14.50;99.90;;;;;;5049505;28;20504;-67
2022/07/08 00:45:15;;;;;;;1999.90;999.90;;;14.60;99.90;;;;;;5048303;28;20477;-67
2022/07/08 00:47:42;;;;;;;1999.90;999.90;;;14.50;99.90;;;;;;5046279;28;20571;-67
2022/07/08 00:50:09;;;;;;;1999.90;999.90;;;14.60;99.90;;;;;;5048080;28;20450;-67
2022/07/08 00:52:36;;;;;;;1999.90;999.90;;;14.60;99.90;;;;;;5049178;28;20464;-66
2022/07/08 00:55:06;;;;;;;1999.90;999.90;;;14.50;99.90;;;;;;5047974;28;21067;-66
2022/07/08 00:57:34;;;;;;;1999.90;999.90;;;14.60;99.90;;;;;;5047604;28;20520;-67
2022/07/08 01:00:01;;;;;;;1999.90;999.90;;;14.60;99.90;;;;;;5048648;28;20970;-66
2022/07/08 01:02:27;;;;;;;1999.90;999.90;;;14.60;99.90;;;;;;5050464;28;20501;-66
2022/07/08 01:04:54;;;;;;;1999.90;999.90;;;14.60;99.90;;;;;;5049760;28;20458;-67
2022/07/08 01:07:22;;;;;;;1999.90;999.90;;;14.60;99.90;;;;;;5048155;28;21027;-68
2022/07/08 01:09:48;;;;;;;1999.90;999.90;;;14.60;99.90;;;;;;5050870;28;20541;-68
2022/07/08 01:12:17;;;;;;;1999.90;999.90;;;14.60;99.90;;;;;;5051233;28;20520;-66
2022/07/08 01:14:44;;;;;;;1999.90;999.90;;;14.60;99.90;;;;;;5049107;28;20496;-69
2022/07/08 01:17:11;;;;;;;1999.90;999.90;;;14.60;99.90;;;;;;5049024;28;20523;-68
2022/07/08 01:19:37;;;;;;;1999.90;999.90;;;14.60;99.90;;;;;;5049792;28;20485;-68
2022/07/08 01:22:06;;;;;;;1999.90;999.90;;;14.60;99.90;;;;;;5050463;28;20462;-69
2022/07/08 01:24:32;;;;;;;1999.90;999.90;;;14.60;99.90;;;;;;5049469;28;20483;-68
2022/07/08 01:26:59;;;;;;;1999.90;999.90;;;14.60;99.90;;;;;;5046027;28;20512;-67
2022/07/08 01:29:26;;;;;;;1999.90;999.90;;;14.60;99.90;;;;;;5052083;28;20539;-66
2022/07/08 01:31:53;;;;;;;1999.90;999.90;;;14.60;99.90;;;;;;5054360;28;20461;-66
2022/07/08 01:34:20;;;;;;;1999.90;999.90;;;14.60;99.90;;;;;;5056488;28;20458;-66
2022/07/08 01:36:46;;;;;;;1999.90;999.90;;;14.60;99.90;;;;;;5049390;28;20508;-66
2022/07/08 01:39:14;;;;;;;1999.90;999.90;;;14.60;99.90;;;;;;5048745;28;20482;-66
2022/07/08 01:41:41;;;;;;;1999.90;999.90;;;14.50;99.90;;;;;;5051752;28;20466;-66
2022/07/08 01:44:08;;;;;;;1999.90;999.90;;;14.50;99.90;;;;;;5051883;28;20458;-67
2022/07/08 01:46:35;;;;;;;1999.90;999.90;;;14.50;99.90;;;;;;5054129;28;20544;-67
2022/07/08 01:49:02;;;;;;;1999.90;999.90;;;14.50;99.90;;;;;;5055059;28;20532;-66
2022/07/08 01:51:29;;;;;;;1999.90;999.90;;;14.50;99.90;;;;;;5054166;28;20464;-66
2022/07/08 01:53:55;;;;;;;1999.90;999.90;;;14.50;99.90;;;;;;5051638;28;20588;-66
2022/07/08 01:56:23;;;;;;;1999.90;999.90;;;14.60;99.90;;;;;;5055531;28;20512;-66
2022/07/08 01:58:50;;;;;;;1999.90;999.90;;;14.50;99.90;;;;;;5054463;28;20906;-66
2022/07/08 02:01:16;;;;;;;1999.90;999.90;;;14.60;99.90;;;;;;5055566;28;20458;-67
2022/07/08 02:03:43;;;;;;;1999.90;999.90;;;14.60;99.90;;;;;;5049275;28;20469;-67
2022/07/08 02:06:10;;;;;;;1999.90;999.90;;;14.70;99.90;;;;;;5053453;28;20454;-66
2022/07/08 02:08:36;;;;;;;1999.90;999.90;;;14.60;99.90;;;;;;5055640;28;20481;-66
2022/07/08 02:13:48;;;;;;;1999.90;999.90;;;14.50;99.90;;;;;;5049974;28;20477;-68
2022/07/08 02:16:15;;;;;;;1999.90;999.90;;;14.50;99.90;;;;;;5053664;28;20523;-68
2022/07/08 02:18:41;;;;;;;1999.90;999.90;;;14.50;99.90;;;;;;5054766;28;20601;-69
2022/07/08 02:21:08;;;;;;;1999.90;999.90;;;14.50;99.90;;;;;;5053385;28;20466;-67
2022/07/08 02:23:35;;;;;;;1999.90;999.90;;;14.50;99.90;;;;;;5050463;28;20474;-67
2022/07/08 02:26:02;;;;;;;1999.90;999.90;;;14.40;99.90;;;;;;5051307;28;20462;-66
2022/07/08 02:28:28;;;;;;;1999.90;999.90;;;14.40;99.90;;;;;;5054971;28;21002;-66
2022/07/08 02:30:56;;;;;;;1999.90;999.90;;;14.40;99.90;;;;;;5053903;28;20520;-67
2022/07/08 02:33:23;;;;;;;1999.90;999.90;;;14.40;99.90;;;;;;5050095;28;20469;-66
2022/07/08 02:35:49;;;;;;;1999.90;999.90;;;14.30;99.90;;;;;;5052085;28;20897;-67
2022/07/08 02:38:16;;;;;;;1999.90;999.90;;;14.30;99.90;;;;;;5055202;28;20482;-66
2022/07/08 02:40:42;;;;;;;1999.90;999.90;;;14.40;99.90;;;;;;5052425;28;20492;-66
2022/07/08 02:43:10;;;;;;;1999.90;999.90;;;14.40;99.90;;;;;;5050702;28;20830;-66
2022/07/08 02:45:37;;;;;;;1999.90;999.90;;;14.40;99.90;;;;;;5052391;28;20461;-66
2022/07/08 02:48:06;;;;;;;1999.90;999.90;;;14.40;99.90;;;;;;5047922;28;20488;-67
2022/07/08 02:50:33;;;;;;;1999.90;999.90;;;14.40;99.90;;;;;;5055670;28;20457;-68
2022/07/08 02:52:59;;;;;;;1999.90;999.90;;;14.40;99.90;;;;;;5049977;28;20511;-66
2022/07/08 02:55:26;;;;;;;1999.90;999.90;;;14.40;99.90;;;;;;5051628;28;20506;-66
2022/07/08 02:57:52;;;;;;;1999.90;999.90;;;14.40;99.90;;;;;;5054443;28;20528;-69
2022/07/08 03:00:19;;;;;;;1999.90;999.90;;;14.40;99.90;;;;;;5055534;28;20466;-69
2022/07/08 03:02:46;;;;;;;1999.90;999.90;;;14.40;99.90;;;;;;5050957;28;20466;-69
2022/07/08 03:05:13;;;;;;;1999.90;999.90;;;14.40;99.90;;;;;;5049905;28;21143;-69
2022/07/08 03:07:40;;;;;;;1999.90;999.90;;;14.40;99.90;;;;;;5052083;28;20903;-68
2022/07/08 03:10:07;;;;;;;1999.90;999.90;;;14.40;99.90;;;;;;5054370;28;20512;-68
2022/07/08 03:12:34;;;;;;;1999.90;999.90;;;14.40;99.90;;;;;;5052724;28;20970;-68
2022/07/08 03:15:00;;;;;;;1999.90;999.90;;;14.40;99.90;;;;;;5050821;28;20463;-69
2022/07/08 03:17:27;;;;;;;1999.90;999.90;;;14.50;99.90;;;;;;5056322;28;20462;-69
2022/07/08 03:19:54;;;;;;;1999.90;999.90;;;14.40;99.90;;;;;;5054428;28;20454;-68
2022/07/08 03:22:21;;;;;;;1999.90;999.90;;;14.40;99.90;;;;;;5052631;28;20462;-69
2022/07/08 03:24:48;;;;;;;1999.90;999.90;;;14.50;99.90;;;;;;5050746;28;20454;-68
2022/07/08 03:27:15;;;;;;;1999.90;999.90;;;14.50;99.90;;;;;;5052672;28;20528;-66
2022/07/08 03:29:42;;;;;;;1999.90;999.90;;;14.40;99.90;;;;;;5053646;28;20493;-69
2022/07/08 03:32:08;;;;;;;1999.90;999.90;;;14.40;99.90;;;;;;5053621;28;20458;-68
2022/07/08 03:34:35;;;;;;;1999.90;999.90;;;14.40;99.90;;;;;;5049229;28;20470;-69
2022/07/08 03:37:01;;;;;;;1999.90;999.90;;;14.40;99.90;;;;;;5054225;28;20489;-67
2022/07/08 03:39:29;;;;;;;1999.90;999.90;;;14.40;99.90;;;;;;5057193;28;20861;-68
2022/07/08 03:41:55;;;;;;;1999.90;999.90;;;14.40;99.90;;;;;;5053533;28;20519;-68
2022/07/08 03:44:22;;;;;;;1999.90;999.90;;;14.40;99.90;;;;;;5049949;28;20462;-66
2022/07/08 03:46:48;;;;;;;1999.90;999.90;;;14.30;99.90;;;;;;5053759;28;20668;-67
2022/07/08 03:49:15;;;;;;;1999.90;999.90;;;14.30;99.90;;;;;;5054777;28;20478;-69
2022/07/08 03:51:41;;;;;;;1999.90;999.90;;;14.30;99.90;;;;;;5054150;28;20961;-69
2022/07/08 03:54:09;;;;;;;1999.90;999.90;;;14.40;99.90;;;;;;5048215;28;20486;-69
2022/07/08 03:56:37;;;;;;;1999.90;999.90;;;14.40;99.90;;;;;;5052747;28;20477;-69
2022/07/08 03:59:04;;;;;;;1999.90;999.90;;;14.50;99.90;;;;;;5054649;28;20478;-67
2022/07/08 04:01:30;;;;;;;1999.90;999.90;;;14.50;99.90;;;;;;5053253;28;21144;-66
2022/07/08 04:03:57;;;;;;;1999.90;999.90;;;14.50;99.90;;;;;;5045213;28;20512;-66
2022/07/08 04:06:23;;;;;;;1999.90;999.90;;;14.50;99.90;;;;;;5048561;28;20454;-66
2022/07/08 04:08:50;;;;;;;1999.90;999.90;;;14.60;99.90;;;;;;5053789;28;20490;-66
2022/07/08 04:11:17;;;;;;;1999.90;999.90;;;14.60;99.90;;;;;;5052318;28;20462;-66
2022/07/08 04:13:45;;;;;;;1999.90;999.90;;;14.50;99.90;;;;;;5047449;28;20462;-69
2022/07/08 04:16:13;;;;;;;1999.90;999.90;;;14.50;99.90;;;;;;5049550;28;20532;-69
2022/07/08 04:18:41;;;;;;;1999.90;999.90;;;14.50;99.90;;;;;;5053496;28;20492;-68
2022/07/08 04:21:08;;;;;;;1999.90;999.90;;;14.50;99.90;;;;;;5054415;28;20928;-69
2022/07/08 04:23:35;;;;;;;1999.90;999.90;;;14.60;99.90;;;;;;5048095;28;20471;-69
2022/07/08 04:26:02;;;;;;;1999.90;999.90;;;14.60;99.90;;;;;;5048437;28;20454;-69
2022/07/08 04:28:29;;;;;;;1999.90;999.90;;;14.60;99.90;;;;;;5080588;22;20486;-72
2022/07/08 04:30:57;;;;;;;1999.90;999.90;;;14.60;99.90;;;;;;5040893;28;20478;-74
2022/07/08 04:33:24;;;;;;;1999.90;999.90;;;14.60;99.90;;;;;;5046631;28;20508;-74
2022/07/08 04:35:50;;;;;;;1999.90;999.90;;;14.70;99.90;;;;;;5046586;28;20478;-73
2022/07/08 04:38:17;;;;;;;1999.90;999.90;;;14.70;99.90;;;;;;5042987;28;20493;-74
2022/07/08 04:40:44;;;;;;;1999.90;999.90;;;14.60;99.90;;;;;;5045147;28;21364;-74
2022/07/08 04:43:12;;;;;;;1999.90;999.90;;;14.70;99.90;;;;;;5047288;28;20958;-74
2022/07/08 04:45:39;;;;;;;1999.90;999.90;;;14.70;99.90;;;;;;5048440;28;20551;-74
2022/07/08 04:48:07;;;;;;;1999.90;999.90;;;14.80;99.90;;;;;;5049343;28;20475;-72
2022/07/08 04:50:33;;;;;;;1999.90;999.90;;;14.80;99.90;;;;;;5047701;28;20536;-73
2022/07/08 04:53:00;;;;;;;1999.90;999.90;;;14.80;99.90;;;;;;5047805;28;20512;-76
2022/07/08 04:55:29;;;;;;;1999.90;999.90;;;14.80;99.90;;;;;;5049974;28;20458;-73
2022/07/08 04:57:57;;;;;;;1999.90;999.90;;;14.70;99.90;;;;;;5048755;28;20474;-75
2022/07/08 05:00:24;;;;;;;1999.90;999.90;;;14.70;99.90;;;;;;5047761;28;20474;-73
2022/07/08 05:02:51;;;;;;;1999.90;999.90;;;14.70;99.90;;;;;;5048411;28;20949;-77
2022/07/08 05:05:19;;;;;;;1999.90;999.90;;;14.70;99.90;;;;;;5055220;28;20504;-73
2022/07/08 05:07:47;;;;;;;1999.90;999.90;;;14.70;99.90;;;;;;5051966;28;20458;-75
2022/07/08 05:10:14;;;;;;;1999.90;999.90;;;14.80;99.90;;;;;;5052371;28;20505;-72
2022/07/08 05:12:41;;;;;;;1999.90;999.90;;;14.80;99.90;;;;;;5051858;28;20474;-72
2022/07/08 05:15:08;;;;;;;1999.90;999.90;;;14.80;99.90;;;;;;5053513;28;20462;-73
2022/07/08 05:17:35;;;;;;;1999.90;999.90;;;14.80;99.90;;;;;;5052740;28;20486;-72
2022/07/08 05:20:02;;;;;;;1999.90;999.90;;;14.90;99.90;;;;;;5052926;28;20478;-73
2022/07/08 05:22:30;;;;;;;1999.90;999.90;;;14.90;99.90;;;;;;5052663;28;20528;-74
2022/07/08 05:24:56;;;;;;;1999.90;999.90;;;15.00;99.90;;;;;;5049067;28;20521;-75
2022/07/08 05:27:23;;;;;;;1999.90;999.90;;;15.10;99.90;;;;;;5051479;28;20839;-73
2022/07/08 05:29:49;;;;;;;1999.90;999.90;;;15.10;99.90;;;;;;5051435;28;20494;-70
2022/07/08 05:32:16;;;;;;;1999.90;999.90;;;15.10;99.90;;;;;;5051373;28;20457;-71
2022/07/08 05:34:44;;;;;;;1999.90;999.90;;;15.20;99.90;;;;;;5052140;28;20466;-74
2022/07/08 05:37:11;;;;;;;1999.90;999.90;;;15.10;99.90;;;;;;5054895;28;20560;-72
2022/07/08 05:39:39;;;;;;;1999.90;999.90;;;15.10;99.90;;;;;;5054777;28;20978;-77
2022/07/08 05:42:07;;;;;;;1999.90;999.90;;;15.20;99.90;;;;;;5052148;28;20476;-74
2022/07/08 05:44:33;;;;;;;1999.90;999.90;;;15.30;99.90;;;;;;5054876;28;21138;-72
2022/07/08 05:47:00;;;;;;;1999.90;999.90;;;15.20;99.90;;;;;;5061713;28;20491;-75
2022/07/08 05:49:27;;;;;;;1999.90;999.90;;;15.20;99.90;;;;;;5074967;28;20469;-73
2022/07/08 05:51:54;;;;;;;1999.90;999.90;;;15.20;99.90;;;;;;5057789;28;20462;-74
2022/07/08 05:54:21;;;;;;;1999.90;999.90;;;15.20;99.90;;;;;;5055226;28;20857;-73
2022/07/08 05:56:49;;;;;;;1999.90;999.90;;;15.20;99.90;;;;;;5055151;28;20540;-73
2022/07/08 05:59:15;;;;;;;1999.90;999.90;;;15.20;99.90;;;;;;5055112;28;20970;-74
2022/07/08 06:01:42;;;;;;;1999.90;999.90;;;15.20;99.90;;;;;;5054288;28;20512;-72
2022/07/08 06:04:08;;;;;;;1999.90;999.90;;;15.20;99.90;;;;;;5054715;28;20466;-72
2022/07/08 06:06:35;;;;;;;1999.90;999.90;;;15.20;99.90;;;;;;5054960;28;20450;-74
2022/07/08 06:09:02;;;;;;;1999.90;999.90;;;15.20;99.90;;;;;;5055078;28;20457;-74
2022/07/08 06:11:28;;;;;;;1999.90;999.90;;;15.20;99.90;;;;;;5053058;28;20470;-73
2022/07/08 06:13:56;;;;;;;1999.90;999.90;;;15.20;99.90;;;;;;5059225;28;20957;-73
2022/07/08 06:16:23;;;;;;;1999.90;999.90;;;15.20;99.90;;;;;;5051303;28;20567;-73
2022/07/08 06:18:50;;;;;;;1999.90;999.90;;;15.30;99.90;;;;;;5051191;28;20477;-72
2022/07/08 06:21:17;;;;;;;1999.90;999.90;;;15.40;99.90;;;;;;5052873;28;20512;-73
2022/07/08 06:23:43;;;;;;;1999.90;999.90;;;15.40;99.90;;;;;;5054334;28;20520;-72
2022/07/08 06:26:10;;;;;;;1999.90;999.90;;;15.50;99.90;;;;;;5054135;28;20934;-70
2022/07/08 06:28:37;;;;;;;1999.90;999.90;;;15.50;99.90;;;;;;5054171;28;20537;-74
2022/07/08 06:31:05;;;;;;;1999.90;999.90;;;15.50;99.90;;;;;;5053507;28;20462;-73
2022/07/08 06:33:32;;;;;;;1999.90;999.90;;;15.50;99.90;;;;;;5055106;28;20442;-72
2022/07/08 06:35:58;;;;;;;1999.90;999.90;;;15.60;99.90;;;;;;5054295;28;20864;-72
2022/07/08 06:38:25;;;;;;;1999.90;999.90;;;15.70;99.90;;;;;;5054508;28;20492;-73
2022/07/08 06:40:52;;;;;;;1999.90;999.90;;;15.90;99.90;;;;;;5053342;28;20461;-75
2022/07/08 06:43:18;;;;;;;1999.90;999.90;;;15.90;99.90;;;;;;5054166;28;20496;-73
2022/07/08 06:45:46;;;;;;;1999.90;999.90;;;15.80;99.90;;;;;;5054118;28;20452;-74
2022/07/08 06:48:14;;;;;;;1999.90;999.90;;;15.90;99.90;;;;;;5048861;28;20545;-72
2022/07/08 06:50:41;;;;;;;1999.90;999.90;;;15.80;99.90;;;;;;5048816;28;20548;-75
2022/07/08 06:53:07;;;;;;;1999.90;999.90;;;15.90;99.90;;;;;;5047511;28;20463;-73
2022/07/08 06:55:34;;;;;;;1999.90;999.90;;;15.90;99.90;;;;;;5053235;28;20476;-72
2022/07/08 06:58:00;;;;;;;1999.90;999.90;;;16.00;99.90;;;;;;5053544;28;20474;-73
2022/07/08 07:00:27;;;;;;;1999.90;999.90;;;16.10;99.90;;;;;;5052969;28;20487;-75
2022/07/08 07:02:54;;;;;;;1999.90;999.90;;;15.90;99.90;;;;;;5054710;28;20505;-73
2022/07/08 07:05:22;;;;;;;1999.90;999.90;;;15.80;99.90;;;;;;5054007;28;20438;-73
2022/07/08 07:07:49;;;;;;;1999.90;999.90;;;15.80;99.90;;;;;;5054277;28;20442;-73
2022/07/08 07:10:16;;;;;;;1999.90;999.90;;;15.80;99.90;;;;;;5053623;28;20462;-74
2022/07/08 07:12:42;;;;;;;1999.90;999.90;;;15.80;99.90;;;;;;5053390;28;20466;-74
2022/07/08 07:15:10;;;;;;;1999.90;999.90;;;15.90;99.90;;;;;;5053824;28;20945;-73
2022/07/08 07:17:40;;;;;;;1999.90;999.90;;;16.00;99.90;;;;;;5053413;28;21002;-77
2022/07/08 07:20:08;;;;;;;1999.90;999.90;;;16.10;99.90;;;;;;5053192;28;20470;-69
2022/07/08 07:22:36;;;;;;;1999.90;999.90;;;16.40;99.90;;;;;;5050909;28;20473;-78
2022/07/08 07:25:03;;;;;;;1999.90;999.90;;;16.50;99.90;;;;;;5053144;28;20454;-72
2022/07/08 07:27:29;;;;;;;1999.90;999.90;;;16.70;99.90;;;;;;5053200;28;20496;-75
2022/07/08 07:29:56;;;;;;;1999.90;999.90;;;16.70;99.90;;;;;;5053063;28;20532;-75
2022/07/08 07:32:23;;;;;;;1999.90;999.90;;;16.70;99.90;;;;;;5052015;28;20813;-75
2022/07/08 07:34:49;;;;;;;1999.90;999.90;;;16.70;99.90;;;;;;5053362;28;20443;-72
2022/07/08 07:37:16;;;;;;;1999.90;999.90;;;16.90;99.90;;;;;;5052978;28;20486;-75
2022/07/08 07:39:44;;;;;;;1999.90;999.90;;;17.20;99.90;;;;;;5053402;28;20466;-75
2022/07/08 07:42:10;;;;;;;1999.90;999.90;;;17.30;99.90;;;;;;5051689;28;20537;-76
2022/07/08 07:44:37;;;;;;;1999.90;999.90;;;16.90;99.90;;;;;;5052614;28;20492;-75
2022/07/08 07:47:04;;;;;;;1999.90;999.90;;;16.90;99.90;;;;;;5053279;28;20447;-75
2022/07/08 07:49:31;;;;;;;1999.90;999.90;;;16.70;99.90;;;;;;5052564;28;21044;-78
2022/07/08 07:51:57;;;;;;;1999.90;999.90;;;16.70;99.90;;;;;;5051599;28;20466;-74
2022/07/08 07:54:24;;;;;;;1999.90;999.90;;;16.90;99.90;;;;;;5052666;28;20488;-75
2022/07/08 07:56:52;;;;;;;1999.90;999.90;;;17.10;99.90;;;;;;5052763;28;20474;-75
2022/07/08 07:59:18;;;;;;;1999.90;999.90;;;17.40;99.90;;;;;;5052670;28;20473;-74
2022/07/08 08:01:45;;;;;;;1999.90;999.90;;;17.60;99.90;;;;;;5050855;28;20503;-74
2022/07/08 08:04:11;;;;;;;1999.90;999.90;;;17.90;99.90;;;;;;5051087;28;20462;-75
2022/07/08 08:06:38;;;;;;;1999.90;999.90;;;17.70;99.90;;;;;;5032637;28;20870;-76
2022/07/08 08:09:04;;;;;;;1999.90;999.90;;;17.90;99.90;;;;;;5033178;28;20467;-73
2022/07/08 08:11:31;;;;;;;1999.90;999.90;;;17.70;99.90;;;;;;5039870;28;20454;-74
2022/07/08 08:13:59;;;;;;;1999.90;999.90;;;17.80;99.90;;;;;;5052136;28;21008;-74
2022/07/08 08:16:26;;;;;;;1999.90;999.90;;;18.00;99.90;;;;;;5052419;28;20434;-74
2022/07/08 08:18:53;;;;;;;1999.90;999.90;;;18.20;99.90;;;;;;5052171;28;20525;-74
2022/07/08 08:21:19;;;;;;;1999.90;999.90;;;18.20;99.90;;;;;;5050516;28;20458;-76
2022/07/08 08:23:46;;;;;;;1999.90;999.90;;;18.00;99.90;;;;;;5050962;28;20462;-74
2022/07/08 08:26:13;;;;;;;1999.90;999.90;;;17.80;99.90;;;;;;5052156;28;20579;-74
2022/07/08 08:28:39;;;;;;;1999.90;999.90;;;17.60;99.90;;;;;;5052195;28;21121;-74
2022/07/08 08:31:07;;;;;;;1999.90;999.90;;;17.40;99.90;;;;;;5051412;28;20462;-74
2022/07/08 08:33:34;;;;;;;1999.90;999.90;;;17.70;99.90;;;;;;5051865;28;20919;-77
2022/07/08 08:36:01;;;;;;;1999.90;999.90;;;18.00;99.90;;;;;;5052027;28;20446;-74
2022/07/08 08:38:27;;;;;;;1999.90;999.90;;;18.30;99.90;;;;;;5051345;28;20482;-74
2022/07/08 08:40:58;;;;;;;1999.90;999.90;;;18.40;99.90;;;;;;5051042;28;20559;-74
2022/07/08 08:43:25;;;;;;;1999.90;999.90;;;18.20;99.90;;;;;;5052169;28;20541;-77
2022/07/08 08:45:53;;;;;;;1999.90;999.90;;;17.90;99.90;;;;;;5051826;28;20930;-74
2022/07/08 08:48:24;;;;;;;1999.90;999.90;;;18.00;99.90;;;;;;5051717;28;20863;-75
2022/07/08 08:50:54;;;;;;;1999.90;999.90;;;18.10;99.90;;;;;;5050374;28;20446;-74
2022/07/08 08:53:27;;;;;;;1999.90;999.90;;;18.10;99.90;;;;;;5049245;28;20496;-74
2022/07/08 08:55:55;;;;;;;1999.90;999.90;;;18.30;99.90;;;;;;5052269;28;20461;-76
2022/07/08 08:58:22;;;;;;;1999.90;999.90;;;18.40;99.90;;;;;;5051649;28;20482;-70
2022/07/08 09:00:49;;;;;;;1999.90;999.90;;;18.40;99.90;;;;;;5050185;28;20829;-71
2022/07/08 09:03:16;;;;;;;1999.90;999.90;;;18.20;99.90;;;;;;5051799;28;20443;-74
2022/07/08 09:05:44;;;;;;;1999.90;999.90;;;18.70;99.90;;;;;;5051475;28;20496;-73
2022/07/08 09:08:11;;;;;;;1999.90;999.90;;;19.10;99.90;;;;;;5051974;28;20507;-75
2022/07/08 09:10:37;;;;;;;1999.90;999.90;;;19.10;99.90;;;;;;5051854;28;20882;-72
2022/07/08 09:13:06;;;;;;;1999.90;999.90;;;19.00;99.90;;;;;;5050468;28;20462;-72
2022/07/08 09:15:35;;;;;;;1999.90;999.90;;;19.20;99.90;;;;;;5051718;28;20442;-77
2022/07/08 09:18:04;;;;;;;1999.90;999.90;;;19.30;99.90;;;;;;5051994;28;20855;-74
2022/07/08 09:20:41;;;;;;;1999.90;999.90;;;18.90;99.90;;;;;;5048652;28;20486;-74
2022/07/08 09:23:12;;;;;;;1999.90;999.90;;;18.80;99.90;;;;;;5051644;28;20446;-77
2022/07/08 09:25:39;;;;;;;1999.90;999.90;;;18.90;99.90;;;;;;5050741;28;20462;-74
2022/07/08 09:28:06;;;;;;;1999.90;999.90;;;18.60;99.90;;;;;;5051455;28;20561;-78
2022/07/08 09:30:33;;;;;;;1999.90;999.90;;;18.70;99.90;;;;;;5049860;28;20494;-74
2022/07/08 09:33:00;;;;;;;1999.90;999.90;;;19.10;99.90;;;;;;5051324;28;20446;-74
2022/07/08 09:35:35;;;;;;;1999.90;999.90;;;19.10;99.90;;;;;;5051231;28;20442;-74
2022/07/08 09:38:03;;;;;;;1999.90;999.90;;;19.30;99.90;;;;;;5051781;28;20568;-72
2022/07/08 09:40:31;;;;;;;1999.90;999.90;;;19.20;99.90;;;;;;5050768;28;20543;-72
2022/07/08 09:42:58;;;;;;;1999.90;999.90;;;19.40;99.90;;;;;;5052206;28;20450;-73
2022/07/08 09:45:32;;;;;;;1999.90;999.90;;;19.50;99.90;;;;;;5052055;28;20454;-71
2022/07/08 09:48:03;;;;;;;1999.90;999.90;;;19.60;99.90;;;;;;5051873;28;20439;-74
2022/07/08 09:50:34;;;;;;;1999.90;999.90;;;19.30;99.90;;;;;;5053531;28;20466;-77
2022/07/08 09:53:00;;;;;;;1999.90;999.90;;;19.40;99.90;;;;;;5054790;28;20499;-74
2022/07/08 09:55:32;;;;;;;1999.90;999.90;;;19.40;99.90;;;;;;5054731;28;20450;-74
2022/07/08 09:58:00;;;;;;;1999.90;999.90;;;19.20;99.90;;;;;;5054562;28;20485;-75
2022/07/08 10:00:26;;;;;;;1999.90;999.90;;;19.30;99.90;;;;;;5053586;28;20470;-76
2022/07/08 10:02:53;;;;;;;1999.90;999.90;;;19.40;99.90;;;;;;5054425;28;20442;-74
2022/07/08 10:05:20;;;;;;;1999.90;999.90;;;19.50;99.90;;;;;;5054662;28;20442;-73
2022/07/08 10:07:47;;;;;;;1999.90;999.90;;;20.00;99.90;;;;;;5054807;28;20438;-73
2022/07/08 10:10:14;;;;;;;1999.90;999.90;;;20.30;99.90;;;;;;5053254;28;20481;-70
2022/07/08 10:12:43;;;;;;;1999.90;999.90;;;20.30;99.90;;;;;;5054773;28;20453;-74
2022/07/08 10:15:11;;;;;;;1999.90;999.90;;;19.90;99.90;;;;;;5054602;28;20469;-77
2022/07/08 10:17:42;;;;;;;1999.90;999.90;;;19.60;99.90;;;;;;5054650;28;20474;-75
2022/07/08 10:20:12;;;;;;;1999.90;999.90;;;19.90;99.90;;;;;;5052459;28;20532;-74
2022/07/08 10:22:40;;;;;;;1999.90;999.90;;;20.10;99.90;;;;;;5052041;28;20466;-75
2022/07/08 10:25:08;;;;;;;1999.90;999.90;;;20.00;99.90;;;;;;5054344;28;20450;-75
2022/07/08 10:27:36;;;;;;;1999.90;999.90;;;20.10;99.90;;;;;;5054485;28;20481;-75
2022/07/08 10:30:18;;;;;;;1999.90;999.90;;;20.10;99.90;;;;;;5074103;22;20494;-67
2022/07/08 10:32:46;;;;;;;1999.90;999.90;;;20.30;99.90;;;;;;5049851;28;20451;-69
2022/07/08 10:35:14;;;;;;;1999.90;999.90;;;20.90;99.90;;;;;;5054084;28;20447;-69
2022/07/08 10:37:52;;;;;;;1999.90;999.90;;;21.40;99.60;;;;;;5053375;28;20535;-69
2022/07/08 10:40:52;;;;;;;1999.90;999.90;;;21.50;98.30;;;;;;5049949;28;20486;-66
2022/07/08 10:43:27;;;;;;;1999.90;999.90;;;20.80;99.20;;;;;;5033828;28;20536;-66
2022/07/08 10:46:15;;;;;;;1999.90;999.90;;;20.60;99.90;;;;;;5049328;28;20490;-67
2022/07/08 10:48:53;;;;;;;1999.90;999.90;;;20.60;99.90;;;;;;5045601;28;20950;-66
2022/07/08 10:51:56;;;;;;;1999.90;999.90;;;20.80;99.30;;;;;;5047962;28;20482;-66
2022/07/08 10:54:32;;;;;;;1999.90;999.90;;;20.60;99.90;;;;;;5046999;28;20454;-67
2022/07/08 10:57:00;;;;;;;1999.90;999.90;;;20.50;99.90;;;;;;5047249;28;20496;-67
2022/07/08 10:59:28;;;;;;;1999.90;999.90;;;20.60;99.90;;;;;;5047713;28;21010;-66
2022/07/08 11:01:59;;;;;;;1999.90;999.90;;;20.40;99.80;;;;;;5048658;28;20466;-66
2022/07/08 11:04:42;;;;;;;1999.90;999.90;;;20.30;99.90;;;;;;5049318;28;20466;-66
2022/07/08 11:07:29;;;;;;;1999.90;999.90;;;20.30;99.90;;;;;;5051533;28;21073;-67
2022/07/08 11:09:58;;;;;;;1999.90;999.90;;;20.60;99.90;;;;;;5045950;28;20478;-67
2022/07/08 11:12:27;;;;;;;1999.90;999.90;;;20.90;99.70;;;;;;5044583;28;20467;-69
2022/07/08 11:14:55;;;;;;;1999.90;999.90;;;21.10;99.70;;;;;;5045995;28;20462;-69
2022/07/08 11:17:24;;;;;;;1999.90;999.90;;;21.40;99.80;;;;;;5048738;28;20848;-69
2022/07/08 11:19:52;;;;;;;1999.90;999.90;;;21.90;99.10;;;;;;5048234;28;20490;-69
2022/07/08 11:22:20;;;;;;;1999.90;999.90;;;22.00;99.60;;;;;;5049661;28;20458;-68
2022/07/08 11:24:48;;;;;;;1999.90;999.90;;;21.80;99.00;;;;;;5043524;28;20494;-68
2022/07/08 11:27:16;;;;;;;1999.90;999.90;;;21.60;98.80;;;;;;5048815;28;20465;-69
2022/07/08 11:29:49;;;;;;;1999.90;999.90;;;21.50;99.60;;;;;;5046000;28;20458;-66
2022/07/08 11:32:18;;;;;;;1999.90;999.90;;;21.40;99.60;;;;;;5048009;28;20450;-67
2022/07/08 11:34:46;;;;;;;1999.90;999.90;;;21.20;99.90;;;;;;5045802;28;20461;-66
2022/07/08 11:37:13;;;;;;;1999.90;999.90;;;21.20;99.90;;;;;;5046765;28;20466;-69
2022/07/08 11:39:41;;;;;;;1999.90;999.90;;;21.30;99.70;;;;;;5049695;28;20482;-66
2022/07/08 11:42:09;;;;;;;1999.90;999.90;;;21.30;99.70;;;;;;5045870;28;20459;-66
2022/07/08 11:44:36;;;;;;;1999.90;999.90;;;20.90;99.90;;;;;;5045074;28;20490;-66
2022/07/08 11:47:03;;;;;;;1999.90;999.90;;;20.80;99.90;;;;;;5047996;28;20466;-69
2022/07/08 11:49:30;;;;;;;1999.90;999.90;;;21.00;99.90;;;;;;5046891;28;20451;-65
2022/07/08 11:51:59;;;;;;;1999.90;999.90;;;21.10;99.90;;;;;;5040463;28;20499;-65
2022/07/08 11:54:27;;;;;;;1999.90;999.90;;;20.90;99.90;;;;;;5048111;28;20516;-66
2022/07/08 11:56:55;;;;;;;1999.90;999.90;;;20.80;99.90;;;;;;5051880;28;20457;-65
2022/07/08 11:59:22;;;;;;;1999.90;999.90;;;20.60;99.90;;;;;;5050170;28;20477;-66
2022/07/08 12:01:50;;;;;;;1999.90;999.90;;;20.60;99.90;;;;;;5048653;28;20564;-65
2022/07/08 12:04:17;;;;;;;1999.90;999.90;;;20.60;99.90;;;;;;5048141;28;20942;-66